sensor_id;sensor_type;location;lat;lon;timestamp;pressure;altitude;pressure_sealevel;temperature;humidity
40998;BME280;26740;45.944;12.480;2024-03-23T00:54:48;101102.50;;;9.82;100.00
40998;BME280;26740;45.944;12.480;2024-03-23T00:57:14;101092.72;;;9.79;100.00
40998;BME280;26740;45.944;12.480;2024-03-23T00:59:39;101097.19;;;9.68;100.00
40998;BME280;26740;45.944;12.480;2024-03-23T01:02:05;101093.31;;;9.58;100.00
40998;BME280;26740;45.944;12.480;2024-03-23T01:04:30;101092.38;;;9.64;100.00
40998;BME280;26740;45.944;12.480;2024-03-23T01:06:56;101089.72;;;9.69;100.00
40998;BME280;26740;45.944;12.480;2024-03-23T01:09:21;101089.00;;;9.62;100.00
40998;BME280;26740;45.944;12.480;2024-03-23T01:11:48;101083.19;;;9.63;100.00
40998;BME280;26740;45.944;12.480;2024-03-23T01:14:13;101073.56;;;9.66;100.00
40998;BME280;26740;45.944;12.480;2024-03-23T01:16:39;101073.69;;;9.71;100.00
40998;BME280;26740;45.944;12.480;2024-03-23T01:19:05;101066.56;;;9.75;100.00
40998;BME280;26740;45.944;12.480;2024-03-23T01:21:31;101060.06;;;9.81;100.00
40998;BME280;26740;45.944;12.480;2024-03-23T01:23:57;101057.19;;;9.76;100.00
40998;BME280;26740;45.944;12.480;2024-03-23T01:26:22;101052.34;;;9.72;100.00
40998;BME280;26740;45.944;12.480;2024-03-23T01:28:48;101054.28;;;9.71;100.00
40998;BME280;26740;45.944;12.480;2024-03-23T01:31:14;101052.47;;;9.65;100.00
40998;BME280;26740;45.944;12.480;2024-03-23T01:33:41;101054.63;;;9.63;100.00
40998;BME280;26740;45.944;12.480;2024-03-23T01:36:06;101050.06;;;9.57;100.00
40998;BME280;26740;45.944;12.480;2024-03-23T01:38:32;101055.63;;;9.57;100.00
40998;BME280;26740;45.944;12.480;2024-03-23T01:40:57;101054.25;;;9.47;100.00
40998;BME280;26740;45.944;12.480;2024-03-23T01:43:23;101057.53;;;9.44;100.00
40998;BME280;26740;45.944;12.480;2024-03-23T01:45:49;101053.19;;;9.48;100.00
40998;BME280;26740;45.944;12.480;2024-03-23T01:48:15;101049.59;;;9.48;100.00
40998;BME280;26740;45.944;12.480;2024-03-23T01:50:41;101044.28;;;9.46;100.00
40998;BME280;26740;45.944;12.480;2024-03-23T01:53:07;101041.97;;;9.43;100.00
40998;BME280;26740;45.944;12.480;2024-03-23T01:55:32;101035.84;;;9.41;100.00
40998;BME280;26740;45.944;12.480;2024-03-23T01:57:58;101035.25;;;9.39;100.00
40998;BME280;26740;45.944;12.480;2024-03-23T02:00:24;101037.66;;;9.36;100.00
40998;BME280;26740;45.944;12.480;2024-03-23T02:02:50;101027.53;;;9.41;100.00
40998;BME280;26740;45.944;12.480;2024-03-23T02:05:16;101029.22;;;9.42;100.00
40998;BME280;26740;45.944;12.480;2024-03-23T02:07:42;101029.31;;;9.47;100.00
40998;BME280;26740;45.944;12.480;2024-03-23T02:10:10;101025.59;;;9.30;100.00
40998;BME280;26740;45.944;12.480;2024-03-23T02:12:38;101014.72;;;9.17;100.00
40998;BME280;26740;45.944;12.480;2024-03-23T02:15:04;101017.13;;;9.13;100.00
40998;BME280;26740;45.944;12.480;2024-03-23T02:17:33;101015.94;;;9.21;100.00
40998;BME280;26740;45.944;12.480;2024-03-23T02:19:59;101010.03;;;9.17;100.00
40998;BME280;26740;45.944;12.480;2024-03-23T02:22:25;101006.44;;;9.17;100.00
40998;BME280;26740;45.944;12.480;2024-03-23T02:24:51;101009.28;;;9.10;100.00
40998;BME280;26740;45.944;12.480;2024-03-23T02:27:16;101006.91;;;9.02;100.00
40998;BME280;26740;45.944;12.480;2024-03-23T02:29:42;101008.81;;;9.01;100.00
40998;BME280;26740;45.944;12.480;2024-03-23T02:32:07;101014.00;;;9.09;100.00
40998;BME280;26740;45.944;12.480;2024-03-23T02:34:35;101015.94;;;9.09;100.00
40998;BME280;26740;45.944;12.480;2024-03-23T02:37:00;101008.84;;;9.25;100.00
40998;BME280;26740;45.944;12.480;2024-03-23T02:39:26;101012.34;;;9.32;100.00
40998;BME280;26740;45.944;12.480;2024-03-23T02:41:51;101007.03;;;9.30;100.00
40998;BME280;26740;45.944;12.480;2024-03-23T02:44:17;101004.03;;;9.32;100.00
40998;BME280;26740;45.944;12.480;2024-03-23T02:46:42;100994.00;;;9.19;100.00
40998;BME280;26740;45.944;12.480;2024-03-23T02:49:08;101003.41;;;9.18;100.00
40998;BME280;26740;45.944;12.480;2024-03-23T02:51:34;100991.97;;;9.15;100.00
40998;BME280;26740;45.944;12.480;2024-03-23T02:53:59;100993.53;;;8.99;100.00
40998;BME280;26740;45.944;12.480;2024-03-23T02:56:25;100993.28;;;9.00;100.00
40998;BME280;26740;45.944;12.480;2024-03-23T02:58:51;100999.50;;;8.84;100.00
40998;BME280;26740;45.944;12.480;2024-03-23T03:01:16;101010.44;;;8.79;100.00
40998;BME280;26740;45.944;12.480;2024-03-23T03:03:42;101001.94;;;8.92;100.00
40998;BME280;26740;45.944;12.480;2024-03-23T03:06:07;100999.41;;;8.90;100.00
40998;BME280;26740;45.944;12.480;2024-03-23T03:08:33;100992.84;;;8.73;100.00
40998;BME280;26740;45.944;12.480;2024-03-23T03:10:59;101002.50;;;8.70;100.00
40998;BME280;26740;45.944;12.480;2024-03-23T03:13:24;100996.81;;;8.65;100.00
40998;BME280;26740;45.944;12.480;2024-03-23T03:15:50;101001.22;;;8.54;100.00
40998;BME280;26740;45.944;12.480;2024-03-23T03:18:16;101009.91;;;8.58;100.00
40998;BME280;26740;45.944;12.480;2024-03-23T03:20:41;101002.69;;;8.57;100.00
40998;BME280;26740;45.944;12.480;2024-03-23T03:23:07;100997.00;;;8.52;100.00
40998;BME280;26740;45.944;12.480;2024-03-23T03:25:33;100988.31;;;8.48;100.00
40998;BME280;26740;45.944;12.480;2024-03-23T03:27:59;100986.09;;;8.39;100.00
40998;BME280;26740;45.944;12.480;2024-03-23T03:30:24;100981.81;;;8.43;100.00
40998;BME280;26740;45.944;12.480;2024-03-23T03:32:53;100979.78;;;8.50;100.00
40998;BME280;26740;45.944;12.480;2024-03-23T03:35:18;100985.31;;;8.50;100.00
40998;BME280;26740;45.944;12.480;2024-03-23T03:37:44;100982.84;;;8.42;100.00
40998;BME280;26740;45.944;12.480;2024-03-23T03:40:11;100990.88;;;8.31;100.00
40998;BME280;26740;45.944;12.480;2024-03-23T03:42:36;100983.97;;;8.22;100.00
40998;BME280;26740;45.944;12.480;2024-03-23T03:45:02;100980.56;;;8.08;100.00
40998;BME280;26740;45.944;12.480;2024-03-23T03:47:30;100984.94;;;7.97;100.00
40998;BME280;26740;45.944;12.480;2024-03-23T03:49:55;100979.28;;;7.92;100.00
40998;BME280;26740;45.944;12.480;2024-03-23T03:52:21;100973.59;;;7.87;100.00
40998;BME280;26740;45.944;12.480;2024-03-23T03:54:47;100970.91;;;7.81;100.00
40998;BME280;26740;45.944;12.480;2024-03-23T03:57:12;100973.66;;;7.81;100.00
40998;BME280;26740;45.944;12.480;2024-03-23T03:59:38;100968.91;;;7.69;100.00
40998;BME280;26740;45.944;12.480;2024-03-23T04:02:03;100957.22;;;7.67;100.00
40998;BME280;26740;45.944;12.480;2024-03-23T04:04:29;100962.22;;;7.58;100.00
40998;BME280;26740;45.944;12.480;2024-03-23T04:07:02;100956.16;;;7.50;100.00
40998;BME280;26740;45.944;12.480;2024-03-23T04:09:27;100955.00;;;7.39;100.00
40998;BME280;26740;45.944;12.480;2024-03-23T04:11:53;100951.47;;;7.32;100.00
40998;BME280;26740;45.944;12.480;2024-03-23T04:14:19;100953.38;;;7.31;100.00
40998;BME280;26740;45.944;12.480;2024-03-23T04:16:44;100943.63;;;7.29;100.00
40998;BME280;26740;45.944;12.480;2024-03-23T04:19:10;100948.94;;;7.30;100.00
40998;BME280;26740;45.944;12.480;2024-03-23T04:21:37;100941.50;;;7.31;100.00
40998;BME280;26740;45.944;12.480;2024-03-23T04:24:03;100948.69;;;7.32;100.00
40998;BME280;26740;45.944;12.480;2024-03-23T04:26:29;100944.00;;;7.32;100.00
40998;BME280;26740;45.944;12.480;2024-03-23T04:28:55;100943.56;;;7.35;100.00
40998;BME280;26740;45.944;12.480;2024-03-23T04:31:20;100942.94;;;7.33;100.00
40998;BME280;26740;45.944;12.480;2024-03-23T04:33:47;100936.22;;;7.29;100.00
40998;BME280;26740;45.944;12.480;2024-03-23T04:36:12;100933.06;;;7.26;100.00
40998;BME280;26740;45.944;12.480;2024-03-23T04:38:38;100931.19;;;7.19;100.00
40998;BME280;26740;45.944;12.480;2024-03-23T04:41:03;100923.28;;;7.23;100.00
40998;BME280;26740;45.944;12.480;2024-03-23T04:43:29;100921.63;;;7.22;100.00
40998;BME280;26740;45.944;12.480;2024-03-23T04:45:55;100921.41;;;7.24;100.00
40998;BME280;26740;45.944;12.480;2024-03-23T04:48:22;100921.41;;;7.24;100.00
40998;BME280;26740;45.944;12.480;2024-03-23T04:50:48;100925.22;;;7.22;100.00
40998;BME280;26740;45.944;12.480;2024-03-23T04:53:15;100931.34;;;7.25;100.00
40998;BME280;26740;45.944;12.480;2024-03-23T04:55:42;100937.09;;;7.23;100.00
40998;BME280;26740;45.944;12.480;2024-03-23T04:58:08;100936.22;;;7.29;100.00
40998;BME280;26740;45.944;12.480;2024-03-23T05:00:34;100932.34;;;7.30;100.00
40998;BME280;26740;45.944;12.480;2024-03-23T05:03:00;100939.41;;;7.45;100.00
40998;BME280;26740;45.944;12.480;2024-03-23T05:05:25;100938.91;;;7.54;100.00
40998;BME280;26740;45.944;12.480;2024-03-23T05:07:51;100935.53;;;7.52;100.00
40998;BME280;26740;45.944;12.480;2024-03-23T05:10:16;100935.44;;;7.59;100.00
40998;BME280;26740;45.944;12.480;2024-03-23T05:12:42;100933.91;;;7.63;100.00
40998;BME280;26740;45.944;12.480;2024-03-23T05:15:08;100920.69;;;7.65;100.00
40998;BME280;26740;45.944;12.480;2024-03-23T05:17:33;100922.53;;;7.71;100.00
40998;BME280;26740;45.944;12.480;2024-03-23T05:19:59;100917.94;;;7.84;100.00
40998;BME280;26740;45.944;12.480;2024-03-23T05:22:25;100916.97;;;8.08;100.00
40998;BME280;26740;45.944;12.480;2024-03-23T05:24:50;100918.47;;;8.34;100.00
40998;BME280;26740;45.944;12.480;2024-03-23T05:27:16;100921.25;;;8.65;100.00
40998;BME280;26740;45.944;12.480;2024-03-23T05:29:42;100916.56;;;8.77;100.00
40998;BME280;26740;45.944;12.480;2024-03-23T05:32:07;100921.38;;;8.82;100.00
40998;BME280;26740;45.944;12.480;2024-03-23T05:34:33;100926.66;;;8.71;100.00
40998;BME280;26740;45.944;12.480;2024-03-23T05:36:59;100919.19;;;8.72;100.00
40998;BME280;26740;45.944;12.480;2024-03-23T05:39:24;100914.53;;;8.84;100.00
40998;BME280;26740;45.944;12.480;2024-03-23T05:41:50;100910.06;;;8.95;100.00
40998;BME280;26740;45.944;12.480;2024-03-23T05:44:16;100907.75;;;9.27;100.00
40998;BME280;26740;45.944;12.480;2024-03-23T05:46:42;100906.66;;;9.40;100.00
40998;BME280;26740;45.944;12.480;2024-03-23T05:49:08;100916.91;;;9.52;100.00
40998;BME280;26740;45.944;12.480;2024-03-23T05:51:34;100907.13;;;9.49;100.00
40998;BME280;26740;45.944;12.480;2024-03-23T05:54:00;100911.88;;;9.77;100.00
40998;BME280;26740;45.944;12.480;2024-03-23T05:56:26;100913.47;;;10.02;100.00
40998;BME280;26740;45.944;12.480;2024-03-23T05:58:52;100906.16;;;10.87;100.00
40998;BME280;26740;45.944;12.480;2024-03-23T06:01:18;100912.81;;;11.64;100.00
40998;BME280;26740;45.944;12.480;2024-03-23T06:03:43;100914.09;;;12.50;100.00
40998;BME280;26740;45.944;12.480;2024-03-23T06:06:10;100903.47;;;12.79;100.00
40998;BME280;26740;45.944;12.480;2024-03-23T06:08:37;100904.00;;;13.08;100.00
40998;BME280;26740;45.944;12.480;2024-03-23T06:11:04;100896.56;;;13.24;100.00
40998;BME280;26740;45.944;12.480;2024-03-23T06:13:33;100886.69;;;13.06;100.00
40998;BME280;26740;45.944;12.480;2024-03-23T06:16:00;100891.66;;;12.35;100.00
40998;BME280;26740;45.944;12.480;2024-03-23T06:18:26;100880.53;;;12.67;100.00
40998;BME280;26740;45.944;12.480;2024-03-23T06:20:51;100882.47;;;13.04;100.00
40998;BME280;26740;45.944;12.480;2024-03-23T06:23:17;100877.28;;;13.18;100.00
40998;BME280;26740;45.944;12.480;2024-03-23T06:25:45;100886.00;;;13.84;100.00
40998;BME280;26740;45.944;12.480;2024-03-23T06:28:11;100881.63;;;14.09;100.00
40998;BME280;26740;45.944;12.480;2024-03-23T06:30:37;100878.38;;;14.58;100.00
40998;BME280;26740;45.944;12.480;2024-03-23T06:33:02;100879.75;;;14.56;100.00
40998;BME280;26740;45.944;12.480;2024-03-23T06:35:28;100885.94;;;14.63;100.00
40998;BME280;26740;45.944;12.480;2024-03-23T06:37:53;100881.16;;;14.64;100.00
40998;BME280;26740;45.944;12.480;2024-03-23T06:40:19;100883.66;;;15.11;100.00
40998;BME280;26740;45.944;12.480;2024-03-23T06:42:45;100884.88;;;15.70;100.00
40998;BME280;26740;45.944;12.480;2024-03-23T06:45:10;100884.22;;;15.99;100.00
40998;BME280;26740;45.944;12.480;2024-03-23T06:47:36;100887.31;;;16.42;100.00
40998;BME280;26740;45.944;12.480;2024-03-23T06:50:02;100892.88;;;17.46;100.00
40998;BME280;26740;45.944;12.480;2024-03-23T06:52:28;100893.44;;;16.89;100.00
40998;BME280;26740;45.944;12.480;2024-03-23T06:54:54;100886.44;;;16.81;100.00
40998;BME280;26740;45.944;12.480;2024-03-23T06:57:20;100892.72;;;17.02;100.00
40998;BME280;26740;45.944;12.480;2024-03-23T06:59:45;100894.69;;;16.67;100.00
40998;BME280;26740;45.944;12.480;2024-03-23T07:02:11;100884.25;;;16.39;100.00
40998;BME280;26740;45.944;12.480;2024-03-23T07:04:37;100883.34;;;16.04;100.00
40998;BME280;26740;45.944;12.480;2024-03-23T07:07:06;100882.38;;;15.69;100.00
40998;BME280;26740;45.944;12.480;2024-03-23T07:09:32;100885.53;;;16.12;100.00
40998;BME280;26740;45.944;12.480;2024-03-23T07:11:58;100885.41;;;15.83;100.00
40998;BME280;26740;45.944;12.480;2024-03-23T07:14:24;100878.66;;;15.89;100.00
40998;BME280;26740;45.944;12.480;2024-03-23T07:16:50;100869.78;;;16.21;100.00
40998;BME280;26740;45.944;12.480;2024-03-23T07:19:17;100874.66;;;16.05;100.00
40998;BME280;26740;45.944;12.480;2024-03-23T07:21:46;100875.56;;;15.96;100.00
40998;BME280;26740;45.944;12.480;2024-03-23T07:24:13;100869.97;;;14.89;100.00
40998;BME280;26740;45.944;12.480;2024-03-23T07:26:39;100867.69;;;14.50;100.00
40998;BME280;26740;45.944;12.480;2024-03-23T07:29:06;100859.38;;;14.60;100.00
40998;BME280;26740;45.944;12.480;2024-03-23T07:31:31;100854.00;;;14.49;100.00
40998;BME280;26740;45.944;12.480;2024-03-23T07:33:57;100851.81;;;14.66;100.00
40998;BME280;26740;45.944;12.480;2024-03-23T07:36:23;100847.63;;;14.69;100.00
40998;BME280;26740;45.944;12.480;2024-03-23T07:38:48;100845.38;;;14.91;100.00
40998;BME280;26740;45.944;12.480;2024-03-23T07:41:16;100835.41;;;15.50;100.00
40998;BME280;26740;45.944;12.480;2024-03-23T07:43:43;100834.06;;;15.43;100.00
40998;BME280;26740;45.944;12.480;2024-03-23T07:46:09;100841.03;;;15.40;100.00
40998;BME280;26740;45.944;12.480;2024-03-23T07:48:34;100840.94;;;15.66;100.00
40998;BME280;26740;45.944;12.480;2024-03-23T07:51:01;100850.03;;;15.32;100.00
40998;BME280;26740;45.944;12.480;2024-03-23T07:53:28;100849.00;;;15.07;100.00
40998;BME280;26740;45.944;12.480;2024-03-23T07:55:58;100846.75;;;15.04;100.00
40998;BME280;26740;45.944;12.480;2024-03-23T07:58:25;100844.91;;;15.49;100.00
40998;BME280;26740;45.944;12.480;2024-03-23T08:00:52;100851.47;;;15.95;100.00
40998;BME280;26740;45.944;12.480;2024-03-23T08:03:18;100850.44;;;15.75;100.00
40998;BME280;26740;45.944;12.480;2024-03-23T08:05:44;100851.28;;;15.70;100.00
40998;BME280;26740;45.944;12.480;2024-03-23T08:08:09;100846.69;;;16.40;100.00
40998;BME280;26740;45.944;12.480;2024-03-23T08:10:36;100847.50;;;17.57;100.00
40998;BME280;26740;45.944;12.480;2024-03-23T08:13:02;100846.41;;;16.76;100.00
40998;BME280;26740;45.944;12.480;2024-03-23T08:15:30;100845.44;;;16.22;100.00
40998;BME280;26740;45.944;12.480;2024-03-23T08:17:58;100843.03;;;16.00;100.00
40998;BME280;26740;45.944;12.480;2024-03-23T08:20:24;100837.63;;;15.59;100.00
40998;BME280;26740;45.944;12.480;2024-03-23T08:22:50;100826.72;;;15.57;100.00
40998;BME280;26740;45.944;12.480;2024-03-23T08:25:15;100840.81;;;15.97;100.00
40998;BME280;26740;45.944;12.480;2024-03-23T08:27:44;100834.09;;;15.98;100.00
40998;BME280;26740;45.944;12.480;2024-03-23T08:30:10;100838.00;;;15.97;100.00
40998;BME280;26740;45.944;12.480;2024-03-23T08:32:36;100833.75;;;16.09;100.00
40998;BME280;26740;45.944;12.480;2024-03-23T08:35:02;100833.69;;;16.54;100.00
40998;BME280;26740;45.944;12.480;2024-03-23T08:37:28;100834.31;;;17.10;100.00
40998;BME280;26740;45.944;12.480;2024-03-23T08:39:53;100834.66;;;17.75;93.83
40998;BME280;26740;45.944;12.480;2024-03-23T08:42:19;100832.81;;;17.41;100.00
40998;BME280;26740;45.944;12.480;2024-03-23T08:44:44;100831.88;;;17.27;100.00
40998;BME280;26740;45.944;12.480;2024-03-23T08:47:15;100825.94;;;16.75;100.00
40998;BME280;26740;45.944;12.480;2024-03-23T08:49:40;100815.66;;;16.31;100.00
40998;BME280;26740;45.944;12.480;2024-03-23T08:52:06;100815.53;;;16.07;100.00
40998;BME280;26740;45.944;12.480;2024-03-23T08:54:32;100804.63;;;16.05;100.00
40998;BME280;26740;45.944;12.480;2024-03-23T08:56:58;100806.72;;;15.84;100.00
40998;BME280;26740;45.944;12.480;2024-03-23T08:59:23;100805.41;;;15.61;100.00
40998;BME280;26740;45.944;12.480;2024-03-23T09:01:49;100801.88;;;15.40;100.00
40998;BME280;26740;45.944;12.480;2024-03-23T09:04:15;100802.88;;;15.65;100.00
40998;BME280;26740;45.944;12.480;2024-03-23T09:06:42;100803.34;;;15.87;100.00
40998;BME280;26740;45.944;12.480;2024-03-23T09:09:08;100808.59;;;15.99;100.00
40998;BME280;26740;45.944;12.480;2024-03-23T09:11:33;100803.00;;;15.99;100.00
40998;BME280;26740;45.944;12.480;2024-03-23T09:13:59;100786.63;;;16.17;100.00
40998;BME280;26740;45.944;12.480;2024-03-23T09:16:24;100788.94;;;16.73;100.00
40998;BME280;26740;45.944;12.480;2024-03-23T09:18:51;100792.78;;;16.82;100.00
40998;BME280;26740;45.944;12.480;2024-03-23T09:21:17;100790.91;;;16.73;100.00
40998;BME280;26740;45.944;12.480;2024-03-23T09:23:45;100782.59;;;17.83;100.00
40998;BME280;26740;45.944;12.480;2024-03-23T09:26:11;100772.22;;;19.01;100.00
40998;BME280;26740;45.944;12.480;2024-03-23T09:28:37;100772.50;;;18.20;100.00
40998;BME280;26740;45.944;12.480;2024-03-23T09:31:06;100761.78;;;17.65;100.00
40998;BME280;26740;45.944;12.480;2024-03-23T09:33:33;100764.06;;;17.20;100.00
40998;BME280;26740;45.944;12.480;2024-03-23T09:36:03;100759.56;;;17.62;100.00
40998;BME280;26740;45.944;12.480;2024-03-23T09:38:29;100764.44;;;17.56;100.00
40998;BME280;26740;45.944;12.480;2024-03-23T09:40:55;100756.53;;;18.34;100.00
40998;BME280;26740;45.944;12.480;2024-03-23T09:43:20;100754.66;;;18.11;100.00
40998;BME280;26740;45.944;12.480;2024-03-23T09:45:46;100752.03;;;18.00;100.00
40998;BME280;26740;45.944;12.480;2024-03-23T09:48:12;100751.34;;;17.90;100.00
40998;BME280;26740;45.944;12.480;2024-03-23T09:50:42;100752.72;;;19.19;100.00
40998;BME280;26740;45.944;12.480;2024-03-23T09:53:09;100747.16;;;20.28;100.00
40998;BME280;26740;45.944;12.480;2024-03-23T09:55:35;100749.28;;;20.54;94.42
40998;BME280;26740;45.944;12.480;2024-03-23T09:58:02;100737.03;;;21.30;77.50
40998;BME280;26740;45.944;12.480;2024-03-23T10:00:27;100736.13;;;20.40;100.00
40998;BME280;26740;45.944;12.480;2024-03-23T10:02:56;100733.59;;;21.42;79.71
40998;BME280;26740;45.944;12.480;2024-03-23T10:05:28;100718.84;;;20.64;79.90
40998;BME280;26740;45.944;12.480;2024-03-23T10:07:53;100726.78;;;20.08;85.21
40998;BME280;26740;45.944;12.480;2024-03-23T10:10:20;100716.28;;;21.26;73.87
40998;BME280;26740;45.944;12.480;2024-03-23T10:12:48;100729.53;;;22.09;77.19
40998;BME280;26740;45.944;12.480;2024-03-23T10:15:21;100727.50;;;22.09;63.84
40998;BME280;26740;45.944;12.480;2024-03-23T10:17:47;100715.38;;;23.51;64.83
40998;BME280;26740;45.944;12.480;2024-03-23T10:20:19;100711.88;;;21.51;68.64
40998;BME280;26740;45.944;12.480;2024-03-23T10:22:48;100710.94;;;21.15;76.98
40998;BME280;26740;45.944;12.480;2024-03-23T10:25:14;100703.66;;;20.74;81.86
40998;BME280;26740;45.944;12.480;2024-03-23T10:27:40;100692.91;;;19.49;100.00
40998;BME280;26740;45.944;12.480;2024-03-23T10:30:13;100683.72;;;19.58;100.00
40998;BME280;26740;45.944;12.480;2024-03-23T10:32:42;100676.31;;;19.11;100.00
40998;BME280;26740;45.944;12.480;2024-03-23T10:35:18;100668.59;;;19.90;100.00
40998;BME280;26740;45.944;12.480;2024-03-23T10:37:45;100676.06;;;20.71;86.74
40998;BME280;26740;45.944;12.480;2024-03-23T10:40:12;100677.66;;;21.78;72.85
40998;BME280;26740;45.944;12.480;2024-03-23T10:42:39;100663.97;;;20.17;100.00
40998;BME280;26740;45.944;12.480;2024-03-23T10:45:05;100665.94;;;19.71;100.00
40998;BME280;26740;45.944;12.480;2024-03-23T10:47:37;100669.22;;;19.64;95.68
40998;BME280;26740;45.944;12.480;2024-03-23T10:50:06;100659.97;;;19.73;100.00
40998;BME280;26740;45.944;12.480;2024-03-23T10:52:35;100648.81;;;18.94;100.00
40998;BME280;26740;45.944;12.480;2024-03-23T10:55:05;100643.34;;;20.07;95.67
40998;BME280;26740;45.944;12.480;2024-03-23T10:57:50;100634.63;;;19.73;100.00
40998;BME280;26740;45.944;12.480;2024-03-23T11:00:17;100630.03;;;19.04;100.00
40998;BME280;26740;45.944;12.480;2024-03-23T11:02:43;100623.44;;;19.22;100.00
40998;BME280;26740;45.944;12.480;2024-03-23T11:07:51;100620.19;;;19.29;100.00
40998;BME280;26740;45.944;12.480;2024-03-23T11:10:30;100615.75;;;19.50;100.00
40998;BME280;26740;45.944;12.480;2024-03-23T11:13:22;100602.38;;;20.01;98.93
40998;BME280;26740;45.944;12.480;2024-03-23T11:15:47;100594.94;;;19.38;100.00
40998;BME280;26740;45.944;12.480;2024-03-23T11:18:20;100590.31;;;19.05;100.00
40998;BME280;26740;45.944;12.480;2024-03-23T11:20:46;100592.84;;;18.79;100.00
40998;BME280;26740;45.944;12.480;2024-03-23T11:23:27;100588.81;;;18.85;100.00
40998;BME280;26740;45.944;12.480;2024-03-23T11:25:53;100579.31;;;19.31;100.00
40998;BME280;26740;45.944;12.480;2024-03-23T11:28:18;100570.78;;;18.72;100.00
40998;BME280;26740;45.944;12.480;2024-03-23T11:30:44;100566.31;;;18.85;100.00
40998;BME280;26740;45.944;12.480;2024-03-23T11:33:09;100551.28;;;19.94;89.30
40998;BME280;26740;45.944;12.480;2024-03-23T11:35:38;100545.47;;;19.45;99.28
40998;BME280;26740;45.944;12.480;2024-03-23T11:38:15;100532.88;;;19.97;81.04
40998;BME280;26740;45.944;12.480;2024-03-23T11:40:45;100537.97;;;19.63;86.44
40998;BME280;26740;45.944;12.480;2024-03-23T11:43:15;100528.94;;;19.30;100.00
40998;BME280;26740;45.944;12.480;2024-03-23T11:45:48;100518.69;;;19.79;100.00
40998;BME280;26740;45.944;12.480;2024-03-23T11:48:19;100512.47;;;19.91;98.58
40998;BME280;26740;45.944;12.480;2024-03-23T11:50:46;100508.00;;;19.67;100.00
40998;BME280;26740;45.944;12.480;2024-03-23T11:53:23;100507.94;;;19.59;100.00
40998;BME280;26740;45.944;12.480;2024-03-23T11:55:49;100503.88;;;20.45;100.00
40998;BME280;26740;45.944;12.480;2024-03-23T11:58:16;100499.66;;;20.74;85.72
40998;BME280;26740;45.944;12.480;2024-03-23T12:00:52;100498.56;;;19.95;96.55
40998;BME280;26740;45.944;12.480;2024-03-23T12:03:19;100496.47;;;21.45;84.31
40998;BME280;26740;45.944;12.480;2024-03-23T12:05:48;100484.47;;;21.83;80.98
40998;BME280;26740;45.944;12.480;2024-03-23T12:08:34;100480.94;;;23.05;68.53
40998;BME280;26740;45.944;12.480;2024-03-23T12:13:31;100464.84;;;21.78;56.72
40998;BME280;26740;45.944;12.480;2024-03-23T12:18:36;100451.44;;;22.05;65.96
40998;BME280;26740;45.944;12.480;2024-03-23T12:21:01;100443.88;;;22.18;67.07
40998;BME280;26740;45.944;12.480;2024-03-23T12:23:27;100437.88;;;21.89;62.94
40998;BME280;26740;45.944;12.480;2024-03-23T12:25:53;100437.53;;;21.17;62.63
40998;BME280;26740;45.944;12.480;2024-03-23T12:28:19;100436.69;;;19.81;68.26
40998;BME280;26740;45.944;12.480;2024-03-23T12:30:44;100427.16;;;19.68;73.21
40998;BME280;26740;45.944;12.480;2024-03-23T12:33:10;100413.97;;;20.52;74.85
40998;BME280;26740;45.944;12.480;2024-03-23T12:35:35;100418.97;;;20.90;75.94
40998;BME280;26740;45.944;12.480;2024-03-23T12:38:01;100416.09;;;20.29;70.93
40998;BME280;26740;45.944;12.480;2024-03-23T12:40:26;100405.94;;;20.11;73.37
40998;BME280;26740;45.944;12.480;2024-03-23T12:42:53;100404.44;;;20.13;65.68
40998;BME280;26740;45.944;12.480;2024-03-23T12:45:19;100404.19;;;20.50;70.87
40998;BME280;26740;45.944;12.480;2024-03-23T12:47:44;100398.81;;;20.13;73.18
40998;BME280;26740;45.944;12.480;2024-03-23T12:50:10;100382.78;;;20.92;67.51
40998;BME280;26740;45.944;12.480;2024-03-23T12:52:36;100373.63;;;21.13;77.48
40998;BME280;26740;45.944;12.480;2024-03-23T12:55:03;100387.63;;;19.91;70.96
40998;BME280;26740;45.944;12.480;2024-03-23T12:57:31;100384.16;;;19.85;79.59
40998;BME280;26740;45.944;12.480;2024-03-23T12:59:57;100375.53;;;20.65;76.07
40998;BME280;26740;45.944;12.480;2024-03-23T13:02:23;100363.22;;;21.43;77.43
40998;BME280;26740;45.944;12.480;2024-03-23T13:04:53;100363.16;;;21.05;66.59
40998;BME280;26740;45.944;12.480;2024-03-23T13:07:19;100369.47;;;20.05;65.40
40998;BME280;26740;45.944;12.480;2024-03-23T13:09:45;100360.19;;;20.31;67.30
40998;BME280;26740;45.944;12.480;2024-03-23T13:12:11;100359.38;;;20.57;64.81
40998;BME280;26740;45.944;12.480;2024-03-23T13:14:40;100344.59;;;20.07;69.25
40998;BME280;26740;45.944;12.480;2024-03-23T13:17:06;100335.31;;;20.07;66.21
40998;BME280;26740;45.944;12.480;2024-03-23T13:19:32;100338.47;;;20.23;93.87
40998;BME280;26740;45.944;12.480;2024-03-23T13:21:58;100328.25;;;19.29;89.54
40998;BME280;26740;45.944;12.480;2024-03-23T13:24:25;100318.75;;;19.65;99.68
40998;BME280;26740;45.944;12.480;2024-03-23T13:26:52;100313.88;;;19.00;100.00
40998;BME280;26740;45.944;12.480;2024-03-23T13:29:21;100314.03;;;19.35;97.75
40998;BME280;26740;45.944;12.480;2024-03-23T13:31:47;100310.22;;;18.76;100.00
40998;BME280;26740;45.944;12.480;2024-03-23T13:34:14;100303.97;;;19.11;100.00